sensor_id;sensor_type;location;lat;lon;timestamp;P1;durP1;ratioP1;P2;durP2;ratioP2
15285;SDS011;7744;52.172;10.668;2023-03-31T00:02:03;5.53;;;1.90;;
15285;SDS011;7744;52.172;10.668;2023-03-31T00:04:41;4.93;;;2.03;;
15285;SDS011;7744;52.172;10.668;2023-03-31T00:07:16;4.10;;;1.90;;
15285;SDS011;7744;52.172;10.668;2023-03-31T00:09:46;4.83;;;1.77;;
15285;SDS011;7744;52.172;10.668;2023-03-31T00:12:15;3.87;;;1.60;;
15285;SDS011;7744;52.172;10.668;2023-03-31T00:14:41;1.67;;;1.20;;
15285;SDS011;7744;52.172;10.668;2023-03-31T00:17:08;3.97;;;1.80;;
15285;SDS011;7744;52.172;10.668;2023-03-31T00:19:35;4.55;;;1.50;;
15285;SDS011;7744;52.172;10.668;2023-03-31T00:22:01;3.42;;;1.35;;
15285;SDS011;7744;52.172;10.668;2023-03-31T00:24:29;4.85;;;1.50;;
15285;SDS011;7744;52.172;10.668;2023-03-31T00:26:58;3.05;;;1.40;;
15285;SDS011;7744;52.172;10.668;2023-03-31T00:29:25;4.47;;;1.40;;
15285;SDS011;7744;52.172;10.668;2023-03-31T00:31:50;4.03;;;1.23;;
15285;SDS011;7744;52.172;10.668;2023-03-31T00:34:16;2.20;;;1.20;;
15285;SDS011;7744;52.172;10.668;2023-03-31T00:36:42;4.33;;;1.50;;
15285;SDS011;7744;52.172;10.668;2023-03-31T00:39:11;4.18;;;1.30;;
15285;SDS011;7744;52.172;10.668;2023-03-31T00:41:39;4.50;;;1.50;;
15285;SDS011;7744;52.172;10.668;2023-03-31T00:44:07;3.27;;;1.23;;
15285;SDS011;7744;52.172;10.668;2023-03-31T00:46:56;4.83;;;1.50;;
15285;SDS011;7744;52.172;10.668;2023-03-31T00:49:35;3.57;;;1.37;;
15285;SDS011;7744;52.172;10.668;2023-03-31T00:52:09;3.93;;;1.40;;
15285;SDS011;7744;52.172;10.668;2023-03-31T00:54:47;5.22;;;1.60;;
15285;SDS011;7744;52.172;10.668;2023-03-31T00:57:18;5.07;;;1.73;;
15285;SDS011;7744;52.172;10.668;2023-03-31T00:59:45;3.33;;;1.10;;
15285;SDS011;7744;52.172;10.668;2023-03-31T01:02:14;5.13;;;1.60;;
15285;SDS011;7744;52.172;10.668;2023-03-31T01:04:42;1.73;;;1.00;;
15285;SDS011;7744;52.172;10.668;2023-03-31T01:07:17;2.25;;;1.20;;
15285;SDS011;7744;52.172;10.668;2023-03-31T01:09:47;5.03;;;1.50;;
15285;SDS011;7744;52.172;10.668;2023-03-31T01:12:18;5.60;;;1.33;;
15285;SDS011;7744;52.172;10.668;2023-03-31T01:14:45;5.47;;;1.40;;
15285;SDS011;7744;52.172;10.668;2023-03-31T01:17:10;3.50;;;1.40;;
15285;SDS011;7744;52.172;10.668;2023-03-31T01:28:20;4.00;;;1.40;;
15285;SDS011;7744;52.172;10.668;2023-03-31T01:31:20;3.17;;;0.87;;
15285;SDS011;7744;52.172;10.668;2023-03-31T01:39:45;3.78;;;1.35;;
15285;SDS011;7744;52.172;10.668;2023-03-31T01:45:15;3.90;;;1.20;;
15285;SDS011;7744;52.172;10.668;2023-03-31T01:48:06;3.93;;;1.27;;
15285;SDS011;7744;52.172;10.668;2023-03-31T01:53:21;2.07;;;1.17;;
15285;SDS011;7744;52.172;10.668;2023-03-31T01:58:45;4.97;;;1.40;;
15285;SDS011;7744;52.172;10.668;2023-03-31T02:01:53;4.43;;;1.10;;
15285;SDS011;7744;52.172;10.668;2023-03-31T02:04:12;4.10;;;1.00;;
15285;SDS011;7744;52.172;10.668;2023-03-31T02:07:00;1.87;;;0.90;;
15285;SDS011;7744;52.172;10.668;2023-03-31T02:09:34;3.27;;;1.00;;
15285;SDS011;7744;52.172;10.668;2023-03-31T02:12:04;3.37;;;1.07;;
15285;SDS011;7744;52.172;10.668;2023-03-31T02:14:33;3.17;;;0.93;;
15285;SDS011;7744;52.172;10.668;2023-03-31T02:17:00;4.97;;;1.30;;
15285;SDS011;7744;52.172;10.668;2023-03-31T02:19:32;3.80;;;0.90;;
15285;SDS011;7744;52.172;10.668;2023-03-31T02:22:03;4.27;;;1.13;;
15285;SDS011;7744;52.172;10.668;2023-03-31T02:24:32;4.47;;;1.07;;
15285;SDS011;7744;52.172;10.668;2023-03-31T02:29:39;4.87;;;1.23;;
15285;SDS011;7744;52.172;10.668;2023-03-31T02:32:16;5.87;;;1.20;;
15285;SDS011;7744;52.172;10.668;2023-03-31T02:34:49;3.00;;;1.10;;
15285;SDS011;7744;52.172;10.668;2023-03-31T02:37:14;2.90;;;0.90;;
15285;SDS011;7744;52.172;10.668;2023-03-31T02:39:41;3.10;;;1.00;;
15285;SDS011;7744;52.172;10.668;2023-03-31T02:42:10;5.10;;;1.27;;
15285;SDS011;7744;52.172;10.668;2023-03-31T02:44:36;2.57;;;0.80;;
15285;SDS011;7744;52.172;10.668;2023-03-31T02:47:04;4.50;;;1.53;;
15285;SDS011;7744;52.172;10.668;2023-03-31T02:49:37;3.23;;;1.00;;
15285;SDS011;7744;52.172;10.668;2023-03-31T02:52:24;5.47;;;1.20;;
15285;SDS011;7744;52.172;10.668;2023-03-31T02:55:14;3.53;;;1.13;;
15285;SDS011;7744;52.172;10.668;2023-03-31T02:58:07;4.70;;;1.67;;
15285;SDS011;7744;52.172;10.668;2023-03-31T03:17:36;3.40;;;1.10;;
15285;SDS011;7744;52.172;10.668;2023-03-31T03:19:54;4.90;;;1.20;;
15285;SDS011;7744;52.172;10.668;2023-03-31T03:22:22;3.23;;;1.10;;
15285;SDS011;7744;52.172;10.668;2023-03-31T03:24:48;3.77;;;1.17;;
15285;SDS011;7744;52.172;10.668;2023-03-31T03:27:15;4.70;;;1.00;;
15285;SDS011;7744;52.172;10.668;2023-03-31T03:29:41;3.70;;;1.30;;
15285;SDS011;7744;52.172;10.668;2023-03-31T03:32:07;3.87;;;1.10;;
15285;SDS011;7744;52.172;10.668;2023-03-31T03:34:33;6.43;;;1.30;;
15285;SDS011;7744;52.172;10.668;2023-03-31T03:36:59;4.47;;;1.43;;
15285;SDS011;7744;52.172;10.668;2023-03-31T03:39:25;5.83;;;1.20;;
15285;SDS011;7744;52.172;10.668;2023-03-31T03:41:50;4.47;;;1.47;;
15285;SDS011;7744;52.172;10.668;2023-03-31T03:44:16;6.33;;;1.60;;
15285;SDS011;7744;52.172;10.668;2023-03-31T03:46:41;3.07;;;1.10;;
15285;SDS011;7744;52.172;10.668;2023-03-31T03:49:07;2.40;;;0.80;;
15285;SDS011;7744;52.172;10.668;2023-03-31T03:51:32;3.50;;;1.17;;
15285;SDS011;7744;52.172;10.668;2023-03-31T03:53:58;4.90;;;1.27;;
15285;SDS011;7744;52.172;10.668;2023-03-31T03:56:24;2.73;;;1.10;;
15285;SDS011;7744;52.172;10.668;2023-03-31T03:58:50;3.90;;;1.13;;
15285;SDS011;7744;52.172;10.668;2023-03-31T04:01:15;3.20;;;1.00;;
15285;SDS011;7744;52.172;10.668;2023-03-31T04:03:42;4.03;;;1.03;;
15285;SDS011;7744;52.172;10.668;2023-03-31T04:06:08;4.50;;;1.90;;
15285;SDS011;7744;52.172;10.668;2023-03-31T04:08:34;4.00;;;1.37;;
15285;SDS011;7744;52.172;10.668;2023-03-31T04:11:00;2.77;;;1.17;;
15285;SDS011;7744;52.172;10.668;2023-03-31T04:13:27;5.47;;;1.30;;
15285;SDS011;7744;52.172;10.668;2023-03-31T04:15:52;1.70;;;1.10;;
15285;SDS011;7744;52.172;10.668;2023-03-31T04:18:18;3.17;;;1.20;;
15285;SDS011;7744;52.172;10.668;2023-03-31T04:20:55;4.30;;;1.60;;
15285;SDS011;7744;52.172;10.668;2023-03-31T04:23:34;4.97;;;1.67;;
15285;SDS011;7744;52.172;10.668;2023-03-31T04:26:10;5.87;;;1.40;;
15285;SDS011;7744;52.172;10.668;2023-03-31T04:28:38;4.53;;;1.40;;
15285;SDS011;7744;52.172;10.668;2023-03-31T04:31:07;4.00;;;1.33;;
15285;SDS011;7744;52.172;10.668;2023-03-31T04:33:34;5.00;;;1.40;;
15285;SDS011;7744;52.172;10.668;2023-03-31T04:36:04;3.23;;;1.07;;
15285;SDS011;7744;52.172;10.668;2023-03-31T04:38:41;4.13;;;1.30;;
15285;SDS011;7744;52.172;10.668;2023-03-31T04:41:10;3.70;;;1.33;;
15285;SDS011;7744;52.172;10.668;2023-03-31T04:43:37;4.43;;;1.60;;
15285;SDS011;7744;52.172;10.668;2023-03-31T04:46:03;3.07;;;1.53;;
15285;SDS011;7744;52.172;10.668;2023-03-31T04:48:29;3.57;;;1.40;;
15285;SDS011;7744;52.172;10.668;2023-03-31T04:50:54;4.13;;;1.37;;
15285;SDS011;7744;52.172;10.668;2023-03-31T04:53:20;5.43;;;1.80;;
15285;SDS011;7744;52.172;10.668;2023-03-31T04:55:47;5.83;;;1.60;;
15285;SDS011;7744;52.172;10.668;2023-03-31T04:58:13;5.10;;;1.57;;
15285;SDS011;7744;52.172;10.668;2023-03-31T05:00:39;5.30;;;1.93;;
15285;SDS011;7744;52.172;10.668;2023-03-31T05:03:05;3.47;;;1.60;;
15285;SDS011;7744;52.172;10.668;2023-03-31T05:05:31;4.53;;;1.30;;
15285;SDS011;7744;52.172;10.668;2023-03-31T05:07:56;4.70;;;1.70;;
15285;SDS011;7744;52.172;10.668;2023-03-31T05:10:22;5.50;;;1.70;;
15285;SDS011;7744;52.172;10.668;2023-03-31T05:12:48;4.43;;;1.83;;
15285;SDS011;7744;52.172;10.668;2023-03-31T05:15:14;2.80;;;1.70;;
15285;SDS011;7744;52.172;10.668;2023-03-31T05:17:39;4.93;;;1.90;;
15285;SDS011;7744;52.172;10.668;2023-03-31T05:20:05;4.43;;;1.70;;
15285;SDS011;7744;52.172;10.668;2023-03-31T05:22:33;3.17;;;1.23;;
15285;SDS011;7744;52.172;10.668;2023-03-31T05:25:03;3.73;;;1.40;;
15285;SDS011;7744;52.172;10.668;2023-03-31T05:27:30;6.37;;;1.80;;
15285;SDS011;7744;52.172;10.668;2023-03-31T05:29:56;4.63;;;1.57;;
15285;SDS011;7744;52.172;10.668;2023-03-31T05:32:22;4.47;;;1.60;;
15285;SDS011;7744;52.172;10.668;2023-03-31T05:34:48;3.13;;;1.33;;
15285;SDS011;7744;52.172;10.668;2023-03-31T05:37:16;2.77;;;1.50;;
15285;SDS011;7744;52.172;10.668;2023-03-31T05:39:44;3.80;;;1.30;;
15285;SDS011;7744;52.172;10.668;2023-03-31T05:42:10;3.57;;;1.57;;
15285;SDS011;7744;52.172;10.668;2023-03-31T05:44:36;3.90;;;1.60;;
15285;SDS011;7744;52.172;10.668;2023-03-31T05:47:02;3.67;;;1.60;;
15285;SDS011;7744;52.172;10.668;2023-03-31T05:49:27;3.73;;;1.63;;
15285;SDS011;7744;52.172;10.668;2023-03-31T05:51:53;3.03;;;1.20;;
15285;SDS011;7744;52.172;10.668;2023-03-31T05:54:18;4.57;;;1.60;;
15285;SDS011;7744;52.172;10.668;2023-03-31T05:56:44;7.17;;;1.50;;
15285;SDS011;7744;52.172;10.668;2023-03-31T05:59:10;6.60;;;1.57;;
15285;SDS011;7744;52.172;10.668;2023-03-31T06:01:35;5.03;;;1.90;;
15285;SDS011;7744;52.172;10.668;2023-03-31T06:04:01;3.87;;;2.23;;
15285;SDS011;7744;52.172;10.668;2023-03-31T06:06:27;4.77;;;1.50;;
15285;SDS011;7744;52.172;10.668;2023-03-31T06:08:52;3.33;;;1.30;;
15285;SDS011;7744;52.172;10.668;2023-03-31T06:11:19;4.77;;;1.53;;
15285;SDS011;7744;52.172;10.668;2023-03-31T06:13:45;4.20;;;1.40;;
15285;SDS011;7744;52.172;10.668;2023-03-31T06:16:12;3.77;;;1.30;;
15285;SDS011;7744;52.172;10.668;2023-03-31T06:18:40;4.17;;;1.67;;
15285;SDS011;7744;52.172;10.668;2023-03-31T06:21:06;3.97;;;1.27;;
15285;SDS011;7744;52.172;10.668;2023-03-31T06:23:32;3.33;;;1.50;;
15285;SDS011;7744;52.172;10.668;2023-03-31T06:26:05;3.47;;;1.58;;
15285;SDS011;7744;52.172;10.668;2023-03-31T06:28:32;5.07;;;1.23;;
15285;SDS011;7744;52.172;10.668;2023-03-31T06:31:00;4.33;;;1.23;;
15285;SDS011;7744;52.172;10.668;2023-03-31T06:33:30;3.17;;;1.10;;
15285;SDS011;7744;52.172;10.668;2023-03-31T06:35:57;3.73;;;1.00;;
15285;SDS011;7744;52.172;10.668;2023-03-31T06:38:25;3.33;;;1.23;;
15285;SDS011;7744;52.172;10.668;2023-03-31T06:40:51;3.20;;;1.42;;
15285;SDS011;7744;52.172;10.668;2023-03-31T06:43:20;3.28;;;1.10;;
15285;SDS011;7744;52.172;10.668;2023-03-31T06:45:46;4.77;;;1.00;;
15285;SDS011;7744;52.172;10.668;2023-03-31T06:48:12;3.88;;;1.17;;
15285;SDS011;7744;52.172;10.668;2023-03-31T06:50:38;5.22;;;1.80;;
15285;SDS011;7744;52.172;10.668;2023-03-31T06:53:05;4.90;;;1.90;;
15285;SDS011;7744;52.172;10.668;2023-03-31T06:55:31;2.47;;;1.20;;
15285;SDS011;7744;52.172;10.668;2023-03-31T06:57:58;2.63;;;1.75;;
15285;SDS011;7744;52.172;10.668;2023-03-31T07:00:23;4.60;;;1.50;;
15285;SDS011;7744;52.172;10.668;2023-03-31T07:02:50;3.15;;;1.30;;
15285;SDS011;7744;52.172;10.668;2023-03-31T07:05:17;1.95;;;1.02;;
15285;SDS011;7744;52.172;10.668;2023-03-31T07:07:44;3.78;;;1.90;;
15285;SDS011;7744;52.172;10.668;2023-03-31T07:10:09;6.20;;;3.40;;
15285;SDS011;7744;52.172;10.668;2023-03-31T07:12:35;4.63;;;2.63;;
15285;SDS011;7744;52.172;10.668;2023-03-31T07:15:01;2.90;;;1.85;;
15285;SDS011;7744;52.172;10.668;2023-03-31T07:17:26;2.85;;;1.30;;
15285;SDS011;7744;52.172;10.668;2023-03-31T07:19:52;4.38;;;1.77;;
15285;SDS011;7744;52.172;10.668;2023-03-31T07:22:18;3.33;;;1.35;;
15285;SDS011;7744;52.172;10.668;2023-03-31T07:24:43;3.88;;;1.40;;
15285;SDS011;7744;52.172;10.668;2023-03-31T07:27:09;3.45;;;1.60;;
15285;SDS011;7744;52.172;10.668;2023-03-31T07:29:35;5.60;;;2.70;;
15285;SDS011;7744;52.172;10.668;2023-03-31T07:32:00;3.97;;;3.17;;
15285;SDS011;7744;52.172;10.668;2023-03-31T07:34:26;4.32;;;1.70;;
15285;SDS011;7744;52.172;10.668;2023-03-31T07:36:53;5.75;;;2.42;;
15285;SDS011;7744;52.172;10.668;2023-03-31T07:39:20;5.82;;;2.83;;
15285;SDS011;7744;52.172;10.668;2023-03-31T07:41:46;3.95;;;1.67;;
15285;SDS011;7744;52.172;10.668;2023-03-31T07:44:12;5.30;;;2.70;;
15285;SDS011;7744;52.172;10.668;2023-03-31T07:46:39;4.75;;;2.25;;
15285;SDS011;7744;52.172;10.668;2023-03-31T07:49:05;5.95;;;2.45;;
15285;SDS011;7744;52.172;10.668;2023-03-31T07:51:32;4.85;;;2.20;;
15285;SDS011;7744;52.172;10.668;2023-03-31T07:53:58;5.10;;;1.80;;
15285;SDS011;7744;52.172;10.668;2023-03-31T07:56:23;4.00;;;1.67;;
15285;SDS011;7744;52.172;10.668;2023-03-31T07:58:50;4.20;;;2.22;;
15285;SDS011;7744;52.172;10.668;2023-03-31T08:01:17;3.88;;;2.00;;
15285;SDS011;7744;52.172;10.668;2023-03-31T08:03:44;3.65;;;1.40;;
15285;SDS011;7744;52.172;10.668;2023-03-31T08:06:11;6.28;;;2.60;;
15285;SDS011;7744;52.172;10.668;2023-03-31T08:08:44;5.32;;;2.50;;
15285;SDS011;7744;52.172;10.668;2023-03-31T08:11:09;3.90;;;1.88;;
15285;SDS011;7744;52.172;10.668;2023-03-31T08:13:35;4.30;;;2.03;;
15285;SDS011;7744;52.172;10.668;2023-03-31T08:16:01;5.43;;;2.42;;
15285;SDS011;7744;52.172;10.668;2023-03-31T08:18:27;4.70;;;2.85;;
15285;SDS011;7744;52.172;10.668;2023-03-31T08:20:52;5.05;;;2.30;;
15285;SDS011;7744;52.172;10.668;2023-03-31T08:23:18;2.70;;;1.45;;
15285;SDS011;7744;52.172;10.668;2023-03-31T08:25:44;4.70;;;1.90;;
15285;SDS011;7744;52.172;10.668;2023-03-31T08:28:10;5.35;;;2.10;;
15285;SDS011;7744;52.172;10.668;2023-03-31T08:30:38;3.28;;;2.10;;
15285;SDS011;7744;52.172;10.668;2023-03-31T08:33:05;4.45;;;1.63;;
15285;SDS011;7744;52.172;10.668;2023-03-31T08:35:32;3.38;;;1.80;;
15285;SDS011;7744;52.172;10.668;2023-03-31T08:37:58;5.38;;;1.92;;
15285;SDS011;7744;52.172;10.668;2023-03-31T08:40:25;4.15;;;0.90;;
15285;SDS011;7744;52.172;10.668;2023-03-31T08:42:54;1.65;;;0.90;;
15285;SDS011;7744;52.172;10.668;2023-03-31T08:45:23;2.53;;;1.00;;
15285;SDS011;7744;52.172;10.668;2023-03-31T08:48:02;4.05;;;1.35;;
15285;SDS011;7744;52.172;10.668;2023-03-31T08:50:40;3.78;;;1.40;;
15285;SDS011;7744;52.172;10.668;2023-03-31T08:53:19;3.50;;;1.08;;
15285;SDS011;7744;52.172;10.668;2023-03-31T08:55:47;3.95;;;0.95;;
15285;SDS011;7744;52.172;10.668;2023-03-31T09:01:17;3.00;;;0.95;;
15285;SDS011;7744;52.172;10.668;2023-03-31T09:03:49;4.47;;;1.15;;
15285;SDS011;7744;52.172;10.668;2023-03-31T09:09:24;2.05;;;1.00;;
15285;SDS011;7744;52.172;10.668;2023-03-31T09:12:15;2.55;;;1.08;;
15285;SDS011;7744;52.172;10.668;2023-03-31T09:17:51;2.70;;;0.82;;
15285;SDS011;7744;52.172;10.668;2023-03-31T09:20:19;2.75;;;1.30;;
15285;SDS011;7744;52.172;10.668;2023-03-31T09:23:05;2.92;;;0.98;;
15285;SDS011;7744;52.172;10.668;2023-03-31T09:25:41;2.53;;;1.10;;
15285;SDS011;7744;52.172;10.668;2023-03-31T09:28:12;2.70;;;1.00;;
15285;SDS011;7744;52.172;10.668;2023-03-31T09:30:44;1.45;;;0.75;;
15285;SDS011;7744;52.172;10.668;2023-03-31T09:33:14;4.43;;;1.30;;
15285;SDS011;7744;52.172;10.668;2023-03-31T09:35:43;2.15;;;1.10;;
15285;SDS011;7744;52.172;10.668;2023-03-31T09:38:12;2.55;;;1.10;;
15285;SDS011;7744;52.172;10.668;2023-03-31T09:40:40;1.33;;;0.98;;
15285;SDS011;7744;52.172;10.668;2023-03-31T09:43:25;3.83;;;1.02;;
15285;SDS011;7744;52.172;10.668;2023-03-31T09:45:52;2.67;;;1.02;;
15285;SDS011;7744;52.172;10.668;2023-03-31T09:48:22;2.25;;;0.90;;
15285;SDS011;7744;52.172;10.668;2023-03-31T09:50:52;1.83;;;0.80;;
15285;SDS011;7744;52.172;10.668;2023-03-31T09:53:28;1.52;;;0.60;;
15285;SDS011;7744;52.172;10.668;2023-03-31T09:56:03;3.85;;;0.85;;
15285;SDS011;7744;52.172;10.668;2023-03-31T09:58:33;4.47;;;1.02;;
15285;SDS011;7744;52.172;10.668;2023-03-31T10:01:09;2.22;;;0.90;;
15285;SDS011;7744;52.172;10.668;2023-03-31T10:03:43;2.03;;;0.80;;
15285;SDS011;7744;52.172;10.668;2023-03-31T10:06:17;2.60;;;0.70;;
15285;SDS011;7744;52.172;10.668;2023-03-31T10:11:20;0.90;;;0.65;;
15285;SDS011;7744;52.172;10.668;2023-03-31T10:19:31;2.60;;;1.10;;
15285;SDS011;7744;52.172;10.668;2023-03-31T10:22:00;1.55;;;0.88;;
15285;SDS011;7744;52.172;10.668;2023-03-31T10:24:40;2.13;;;0.90;;
15285;SDS011;7744;52.172;10.668;2023-03-31T10:27:23;2.63;;;0.70;;
15285;SDS011;7744;52.172;10.668;2023-03-31T10:29:55;1.92;;;1.02;;
15285;SDS011;7744;52.172;10.668;2023-03-31T10:32:23;2.60;;;0.75;;
15285;SDS011;7744;52.172;10.668;2023-03-31T10:34:52;2.60;;;0.68;;
15285;SDS011;7744;52.172;10.668;2023-03-31T10:37:21;1.35;;;0.60;;
15285;SDS011;7744;52.172;10.668;2023-03-31T10:39:59;2.00;;;0.80;;
15285;SDS011;7744;52.172;10.668;2023-03-31T10:42:30;2.87;;;0.87;;
15285;SDS011;7744;52.172;10.668;2023-03-31T10:45:12;2.33;;;0.87;;
15285;SDS011;7744;52.172;10.668;2023-03-31T10:47:45;0.50;;;0.50;;
15285;SDS011;7744;52.172;10.668;2023-03-31T10:50:14;1.70;;;0.87;;
15285;SDS011;7744;52.172;10.668;2023-03-31T10:52:44;1.47;;;0.70;;
15285;SDS011;7744;52.172;10.668;2023-03-31T10:55:12;1.33;;;0.63;;
15285;SDS011;7744;52.172;10.668;2023-03-31T11:11:19;5.03;;;2.70;;
15285;SDS011;7744;52.172;10.668;2023-03-31T11:14:27;0.60;;;0.50;;
15285;SDS011;7744;52.172;10.668;2023-03-31T11:17:08;0.93;;;0.70;;
15285;SDS011;7744;52.172;10.668;2023-03-31T11:20:17;1.65;;;0.90;;
15285;SDS011;7744;52.172;10.668;2023-03-31T11:25:42;1.53;;;0.70;;
15285;SDS011;7744;52.172;10.668;2023-03-31T11:28:32;1.17;;;0.60;;
15285;SDS011;7744;52.172;10.668;2023-03-31T11:35:02;1.03;;;0.60;;
15285;SDS011;7744;52.172;10.668;2023-03-31T11:42:47;1.20;;;0.70;;
15285;SDS011;7744;52.172;10.668;2023-03-31T11:45:24;1.37;;;0.77;;
15285;SDS011;7744;52.172;10.668;2023-03-31T11:47:58;1.30;;;0.77;;
15285;SDS011;7744;52.172;10.668;2023-03-31T11:50:29;1.57;;;0.80;;
15285;SDS011;7744;52.172;10.668;2023-03-31T11:53:19;0.80;;;0.50;;
15285;SDS011;7744;52.172;10.668;2023-03-31T11:55:51;1.87;;;0.80;;
15285;SDS011;7744;52.172;10.668;2023-03-31T12:01:02;1.83;;;0.83;;
15285;SDS011;7744;52.172;10.668;2023-03-31T12:03:51;0.75;;;0.60;;
15285;SDS011;7744;52.172;10.668;2023-03-31T12:06:29;0.70;;;0.60;;
15285;SDS011;7744;52.172;10.668;2023-03-31T12:14:36;1.67;;;0.93;;
15285;SDS011;7744;52.172;10.668;2023-03-31T12:17:11;1.35;;;0.50;;
15285;SDS011;7744;52.172;10.668;2023-03-31T12:19:47;0.68;;;0.65;;
15285;SDS011;7744;52.172;10.668;2023-03-31T12:22:32;1.35;;;0.70;;
15285;SDS011;7744;52.172;10.668;2023-03-31T12:25:02;1.10;;;0.70;;
15285;SDS011;7744;52.172;10.668;2023-03-31T12:27:32;1.30;;;0.68;;
15285;SDS011;7744;52.172;10.668;2023-03-31T12:30:11;0.93;;;0.60;;
15285;SDS011;7744;52.172;10.668;2023-03-31T12:32:41;1.58;;;0.95;;
15285;SDS011;7744;52.172;10.668;2023-03-31T12:48:48;0.82;;;0.50;;
15285;SDS011;7744;52.172;10.668;2023-03-31T12:59:28;0.90;;;0.50;;
15285;SDS011;7744;52.172;10.668;2023-03-31T13:04:40;2.30;;;0.63;;
15285;SDS011;7744;52.172;10.668;2023-03-31T13:09:54;0.63;;;0.40;;
15285;SDS011;7744;52.172;10.668;2023-03-31T13:15:54;0.65;;;0.65;;
15285;SDS011;7744;52.172;10.668;2023-03-31T13:18:21;0.80;;;0.80;;
15285;SDS011;7744;52.172;10.668;2023-03-31T13:21:06;1.13;;;0.70;;
15285;SDS011;7744;52.172;10.668;2023-03-31T13:23:33;1.30;;;0.80;;
15285;SDS011;7744;52.172;10.668;2023-03-31T13:26:01;1.65;;;0.90;;
15285;SDS011;7744;52.172;10.668;2023-03-31T13:28:31;1.98;;;0.85;;
15285;SDS011;7744;52.172;10.668;2023-03-31T13:31:06;1.27;;;0.82;;
15285;SDS011;7744;52.172;10.668;2023-03-31T13:41:44;1.50;;;0.82;;
15285;SDS011;7744;52.172;10.668;2023-03-31T13:55:56;1.35;;;0.82;;
15285;SDS011;7744;52.172;10.668;2023-03-31T14:06:43;1.33;;;0.70;;
15285;SDS011;7744;52.172;10.668;2023-03-31T14:09:42;1.75;;;0.68;;
15285;SDS011;7744;52.172;10.668;2023-03-31T14:12:30;1.35;;;0.60;;
15285;SDS011;7744;52.172;10.668;2023-03-31T14:14:58;1.67;;;0.57;;
15285;SDS011;7744;52.172;10.668;2023-03-31T14:17:30;0.40;;;0.40;;
15285;SDS011;7744;52.172;10.668;2023-03-31T14:20:13;1.55;;;0.63;;
15285;SDS011;7744;52.172;10.668;2023-03-31T14:26:02;1.98;;;0.73;;
15285;SDS011;7744;52.172;10.668;2023-03-31T14:31:32;1.40;;;0.80;;
15285;SDS011;7744;52.172;10.668;2023-03-31T14:34:15;0.93;;;0.70;;
15285;SDS011;7744;52.172;10.668;2023-03-31T14:36:59;1.73;;;0.65;;
15285;SDS011;7744;52.172;10.668;2023-03-31T14:39:32;2.08;;;0.70;;
15285;SDS011;7744;52.172;10.668;2023-03-31T14:42:12;0.70;;;0.50;;
15285;SDS011;7744;52.172;10.668;2023-03-31T14:44:40;1.65;;;0.88;;
15285;SDS011;7744;52.172;10.668;2023-03-31T14:47:22;1.50;;;0.90;;
15285;SDS011;7744;52.172;10.668;2023-03-31T14:50:00;2.80;;;1.33;;
15285;SDS011;7744;52.172;10.668;2023-03-31T14:52:30;1.30;;;0.73;;
15285;SDS011;7744;52.172;10.668;2023-03-31T14:54:57;1.95;;;0.70;;
15285;SDS011;7744;52.172;10.668;2023-03-31T14:57:34;1.77;;;0.52;;
15285;SDS011;7744;52.172;10.668;2023-03-31T15:00:05;2.00;;;0.65;;
15285;SDS011;7744;52.172;10.668;2023-03-31T15:02:36;0.73;;;0.55;;
15285;SDS011;7744;52.172;10.668;2023-03-31T15:05:26;2.15;;;0.70;;
15285;SDS011;7744;52.172;10.668;2023-03-31T15:08:04;0.88;;;0.57;;
15285;SDS011;7744;52.172;10.668;2023-03-31T15:10:36;1.83;;;1.00;;
15285;SDS011;7744;52.172;10.668;2023-03-31T15:13:39;1.00;;;0.90;;
15285;SDS011;7744;52.172;10.668;2023-03-31T15:19:19;1.85;;;0.73;;
15285;SDS011;7744;52.172;10.668;2023-03-31T15:21:57;1.85;;;0.70;;
15285;SDS011;7744;52.172;10.668;2023-03-31T15:24:29;2.47;;;1.10;;
15285;SDS011;7744;52.172;10.668;2023-03-31T15:27:00;2.25;;;1.10;;
15285;SDS011;7744;52.172;10.668;2023-03-31T15:29:40;1.58;;;0.80;;
15285;SDS011;7744;52.172;10.668;2023-03-31T15:34:55;3.08;;;1.13;;
15285;SDS011;7744;52.172;10.668;2023-03-31T15:37:26;2.05;;;0.80;;
15285;SDS011;7744;52.172;10.668;2023-03-31T15:39:57;1.83;;;1.00;;
15285;SDS011;7744;52.172;10.668;2023-03-31T15:42:25;1.98;;;0.75;;
15285;SDS011;7744;52.172;10.668;2023-03-31T15:44:53;1.00;;;0.63;;
15285;SDS011;7744;52.172;10.668;2023-03-31T15:47:28;2.75;;;2.08;;
15285;SDS011;7744;52.172;10.668;2023-03-31T15:49:55;1.60;;;1.42;;
15285;SDS011;7744;52.172;10.668;2023-03-31T15:52:31;3.25;;;0.98;;
15285;SDS011;7744;52.172;10.668;2023-03-31T15:55:23;3.22;;;1.13;;
15285;SDS011;7744;52.172;10.668;2023-03-31T15:57:56;1.67;;;0.80;;
15285;SDS011;7744;52.172;10.668;2023-03-31T16:01:09;1.45;;;1.02;;
15285;SDS011;7744;52.172;10.668;2023-03-31T16:03:28;1.33;;;1.00;;
15285;SDS011;7744;52.172;10.668;2023-03-31T16:06:09;1.92;;;1.00;;
15285;SDS011;7744;52.172;10.668;2023-03-31T16:08:45;3.65;;;1.70;;
15285;SDS011;7744;52.172;10.668;2023-03-31T16:11:17;3.17;;;1.10;;
15285;SDS011;7744;52.172;10.668;2023-03-31T16:13:53;2.13;;;1.00;;
15285;SDS011;7744;52.172;10.668;2023-03-31T16:16:23;1.50;;;0.85;;
15285;SDS011;7744;52.172;10.668;2023-03-31T16:18:52;1.25;;;0.90;;
15285;SDS011;7744;52.172;10.668;2023-03-31T16:21:28;1.42;;;0.75;;
15285;SDS011;7744;52.172;10.668;2023-03-31T16:24:01;2.13;;;0.70;;
15285;SDS011;7744;52.172;10.668;2023-03-31T16:26:27;1.13;;;0.60;;
15285;SDS011;7744;52.172;10.668;2023-03-31T16:28:53;1.63;;;0.70;;
15285;SDS011;7744;52.172;10.668;2023-03-31T16:31:28;2.13;;;0.90;;
15285;SDS011;7744;52.172;10.668;2023-03-31T16:34:05;1.60;;;0.70;;
15285;SDS011;7744;52.172;10.668;2023-03-31T16:36:33;1.77;;;0.70;;
15285;SDS011;7744;52.172;10.668;2023-03-31T16:38:59;3.20;;;0.95;;
15285;SDS011;7744;52.172;10.668;2023-03-31T16:41:29;1.33;;;0.90;;
15285;SDS011;7744;52.172;10.668;2023-03-31T16:43:56;2.88;;;1.00;;
15285;SDS011;7744;52.172;10.668;2023-03-31T16:46:22;2.08;;;0.70;;
15285;SDS011;7744;52.172;10.668;2023-03-31T16:48:48;2.88;;;1.02;;
15285;SDS011;7744;52.172;10.668;2023-03-31T16:51:15;3.90;;;1.33;;
15285;SDS011;7744;52.172;10.668;2023-03-31T16:53:41;2.50;;;1.00;;
15285;SDS011;7744;52.172;10.668;2023-03-31T16:56:07;2.08;;;0.93;;
15285;SDS011;7744;52.172;10.668;2023-03-31T16:58:34;3.58;;;1.20;;
15285;SDS011;7744;52.172;10.668;2023-03-31T17:01:00;3.08;;;1.00;;
15285;SDS011;7744;52.172;10.668;2023-03-31T17:03:27;3.10;;;1.10;;
15285;SDS011;7744;52.172;10.668;2023-03-31T17:05:53;2.75;;;1.00;;
15285;SDS011;7744;52.172;10.668;2023-03-31T17:08:21;1.98;;;0.88;;
15285;SDS011;7744;52.172;10.668;2023-03-31T17:10:52;2.97;;;1.20;;
15285;SDS011;7744;52.172;10.668;2023-03-31T17:13:23;2.85;;;1.00;;
15285;SDS011;7744;52.172;10.668;2023-03-31T17:18:39;3.55;;;1.00;;
15285;SDS011;7744;52.172;10.668;2023-03-31T17:21:06;4.30;;;1.17;;
15285;SDS011;7744;52.172;10.668;2023-03-31T17:23:34;3.67;;;1.08;;
15285;SDS011;7744;52.172;10.668;2023-03-31T17:26:01;4.32;;;1.15;;
15285;SDS011;7744;52.172;10.668;2023-03-31T17:28:26;3.42;;;1.10;;
15285;SDS011;7744;52.172;10.668;2023-03-31T17:30:54;3.25;;;1.23;;
15285;SDS011;7744;52.172;10.668;2023-03-31T17:33:19;1.75;;;1.08;;
15285;SDS011;7744;52.172;10.668;2023-03-31T17:35:46;3.00;;;1.20;;
15285;SDS011;7744;52.172;10.668;2023-03-31T17:38:11;2.55;;;1.17;;
15285;SDS011;7744;52.172;10.668;2023-03-31T17:40:38;3.08;;;1.45;;
15285;SDS011;7744;52.172;10.668;2023-03-31T17:43:04;3.00;;;1.33;;
15285;SDS011;7744;52.172;10.668;2023-03-31T17:45:30;2.83;;;1.52;;
15285;SDS011;7744;52.172;10.668;2023-03-31T17:47:57;3.95;;;1.42;;
15285;SDS011;7744;52.172;10.668;2023-03-31T17:50:23;3.88;;;1.13;;
15285;SDS011;7744;52.172;10.668;2023-03-31T17:52:49;3.45;;;1.33;;
15285;SDS011;7744;52.172;10.668;2023-03-31T17:55:15;3.38;;;1.55;;
15285;SDS011;7744;52.172;10.668;2023-03-31T17:57:41;2.13;;;1.52;;